Time;durP1;ratioP1;P1;durP2;ratioP2;P2;SDS_P1;SDS_P2;PMS_P1;PMS_P2;Temp;Humidity;BMP_temperature;BMP_pressure;BME280_temperature;BME280_humidity;BME280_pressure;Samples;Min_cycle;Max_cycle;Signal;HPM_P1;HPM_P2
2024/01/23 00:02:01;;;;;;;1.90;1.00;;;8.30;99.90;;;;;;4989585;28;20195;-84
2024/01/23 00:04:26;;;;;;;2.97;1.30;;;8.30;99.90;;;;;;4986725;28;20236;-84
2024/01/23 00:06:52;;;;;;;1.73;1.00;;;8.30;99.90;;;;;;4980217;28;20196;-84
2024/01/23 00:09:18;;;;;;;3.63;1.23;;;8.30;99.90;;;;;;4979239;28;20300;-85
2024/01/23 00:11:44;;;;;;;5.80;1.10;;;8.40;99.90;;;;;;4983166;28;20245;-84
2024/01/23 00:14:09;;;;;;;1.73;1.10;;;8.30;99.90;;;;;;4974777;28;20440;-84
2024/01/23 00:16:35;;;;;;;1.90;1.03;;;8.60;99.90;;;;;;4979803;28;20195;-84
2024/01/23 00:19:01;;;;;;;1.90;1.10;;;8.50;99.90;;;;;;4981259;28;20198;-85
2024/01/23 00:21:26;;;;;;;3.00;1.00;;;8.60;99.90;;;;;;4973900;28;20207;-84
2024/01/23 00:23:52;;;;;;;2.13;1.20;;;9.00;99.90;;;;;;4980745;28;20193;-85
2024/01/23 00:26:17;;;;;;;1.60;1.07;;;8.70;99.90;;;;;;4979266;28;20215;-85
2024/01/23 00:28:43;;;;;;;1.80;1.37;;;8.70;99.90;;;;;;4978844;28;20231;-82
2024/01/23 00:31:08;;;;;;;3.93;1.30;;;9.20;99.90;;;;;;4981853;28;20187;-82
2024/01/23 00:33:34;;;;;;;2.30;0.97;;;8.80;99.90;;;;;;4980729;28;20200;-84
2024/01/23 00:36:00;;;;;;;1.50;0.80;;;8.90;99.90;;;;;;4983486;28;20197;-82
2024/01/23 00:38:25;;;;;;;3.40;1.20;;;9.70;99.90;;;;;;4982805;28;20219;-84
2024/01/23 00:40:51;;;;;;;1.80;0.83;;;9.10;99.90;;;;;;4982225;28;20195;-84
2024/01/23 00:43:16;;;;;;;2.30;1.00;;;8.60;99.90;;;;;;4985319;28;20181;-82
2024/01/23 00:45:42;;;;;;;6.00;1.47;;;8.90;99.90;;;;;;4987436;28;20204;-81
2024/01/23 00:48:08;;;;;;;1.57;1.00;;;8.70;99.90;;;;;;4985195;28;20681;-82
2024/01/23 00:50:33;;;;;;;1.67;0.77;;;9.00;99.90;;;;;;4984220;28;20271;-85
2024/01/23 00:52:59;;;;;;;1.53;0.80;;;8.40;99.90;;;;;;4980618;28;20242;-84
2024/01/23 00:55:24;;;;;;;1.07;0.93;;;8.60;99.90;;;;;;4979738;28;20214;-84
2024/01/23 00:57:50;;;;;;;2.90;1.10;;;9.00;99.90;;;;;;4984655;28;20193;-84
2024/01/23 01:00:15;;;;;;;2.23;1.07;;;8.60;99.90;;;;;;4983316;28;20189;-84
2024/01/23 01:02:41;;;;;;;3.03;1.27;;;8.50;99.90;;;;;;4979358;28;20517;-84
2024/01/23 01:05:07;;;;;;;3.23;1.10;;;8.60;99.90;;;;;;4982383;28;20205;-84
2024/01/23 01:07:32;;;;;;;3.40;1.13;;;8.50;99.90;;;;;;4978324;28;20185;-84
2024/01/23 01:09:58;;;;;;;1.53;0.90;;;8.90;99.90;;;;;;4978562;28;20260;-82
2024/01/23 01:12:23;;;;;;;2.07;1.10;;;8.70;99.90;;;;;;4982234;28;20240;-84
2024/01/23 01:14:49;;;;;;;1.23;0.93;;;9.10;99.90;;;;;;4986017;28;20205;-84
2024/01/23 01:17:14;;;;;;;3.33;1.20;;;8.50;99.90;;;;;;4986483;28;20342;-84
2024/01/23 01:19:40;;;;;;;1.03;0.93;;;8.40;99.90;;;;;;4983683;28;20193;-84
2024/01/23 01:22:05;;;;;;;3.00;1.10;;;8.50;99.90;;;;;;4985460;28;20260;-84
2024/01/23 01:24:31;;;;;;;3.63;1.33;;;8.10;99.90;;;;;;4988342;28;20219;-84
2024/01/23 01:26:57;;;;;;;2.77;1.10;;;8.50;99.90;;;;;;4988610;28;20200;-84
2024/01/23 01:29:23;;;;;;;2.90;1.00;;;8.00;99.90;;;;;;4993771;28;20498;-84
2024/01/23 01:31:48;;;;;;;4.70;1.30;;;8.00;99.90;;;;;;4994310;28;20188;-84
2024/01/23 01:34:14;;;;;;;5.23;1.30;;;7.70;99.90;;;;;;4988750;28;20460;-84
2024/01/23 01:36:39;;;;;;;3.43;1.63;;;7.60;99.90;;;;;;5010635;28;20180;-84
2024/01/23 01:39:06;;;;;;;7.23;1.30;;;7.90;99.90;;;;;;4991871;28;20196;-84
2024/01/23 01:41:32;;;;;;;6.68;1.70;;;7.90;99.90;;;;;;4995443;28;20366;-84
2024/01/23 01:43:58;;;;;;;4.40;1.13;;;;;;;;;;4997089;28;20188;-84
2024/01/23 01:46:25;;;;;;;2.30;1.00;;;7.50;99.90;;;;;;4994828;28;20169;-84
2024/01/23 01:48:52;;;;;;;4.55;1.10;;;7.60;99.90;;;;;;4994238;28;20215;-85
2024/01/23 01:51:21;;;;;;;2.45;1.00;;;9.80;99.90;;;;;;4995171;28;20177;-84
2024/01/23 01:53:48;;;;;;;3.00;1.48;;;7.90;99.90;;;;;;4994651;28;20199;-84
2024/01/23 01:56:14;;;;;;;3.42;1.70;;;7.70;99.90;;;;;;4995125;28;20272;-84
2024/01/23 01:58:40;;;;;;;2.40;1.35;;;7.90;99.90;;;;;;5010223;28;20224;-84
2024/01/23 02:01:05;;;;;;;3.27;1.60;;;8.10;99.90;;;;;;4994544;28;20192;-85
2024/01/23 02:03:31;;;;;;;3.53;1.33;;;8.40;99.90;;;;;;4976053;28;20188;-84
2024/01/23 02:05:58;;;;;;;1.30;1.00;;;7.90;99.90;;;;;;4978100;28;20204;-84
2024/01/23 02:08:24;;;;;;;5.32;1.25;;;7.80;99.90;;;;;;4974355;28;20216;-84
2024/01/23 02:10:49;;;;;;;3.67;1.63;;;7.60;99.90;;;;;;4973750;28;20197;-84
2024/01/23 02:13:15;;;;;;;2.27;1.00;;;8.10;99.90;;;;;;4988907;28;20448;-83
2024/01/23 02:15:41;;;;;;;6.30;2.37;;;8.20;99.90;;;;;;4989392;28;20255;-82
2024/01/23 02:18:06;;;;;;;2.23;1.13;;;7.70;99.90;;;;;;4980479;28;20193;-83
2024/01/23 02:20:32;;;;;;;3.87;1.27;;;7.60;99.90;;;;;;4982811;28;20184;-82
2024/01/23 02:22:58;;;;;;;4.20;1.67;;;7.70;99.90;;;;;;4982066;28;20253;-83
2024/01/23 02:25:24;;;;;;;2.45;1.40;;;7.60;99.90;;;;;;4973611;28;20212;-83
2024/01/23 02:27:49;;;;;;;4.73;1.67;;;7.90;99.90;;;;;;4977690;28;20196;-83
2024/01/23 02:30:15;;;;;;;2.07;1.37;;;7.70;99.90;;;;;;4979676;28;20672;-83
2024/01/23 02:32:44;;;;;;;5.40;2.10;;;7.70;99.90;;;;;;4995803;28;20188;-83
2024/01/23 02:35:09;;;;;;;2.90;1.65;;;8.10;99.90;;;;;;4982897;28;20227;-83
2024/01/23 02:37:36;;;;;;;6.23;1.83;;;7.80;99.90;;;;;;4981644;28;20673;-83
2024/01/23 02:40:03;;;;;;;5.07;1.55;;;7.50;99.90;;;;;;4982893;28;20192;-83
2024/01/23 02:42:28;;;;;;;2.67;1.10;;;7.10;99.90;;;;;;4976909;28;20592;-83
2024/01/23 02:44:54;;;;;;;5.60;1.20;;;7.70;99.90;;;;;;4978527;28;20205;-83
2024/01/23 02:47:20;;;;;;;4.40;1.40;;;7.10;99.90;;;;;;4980081;28;20250;-83
2024/01/23 02:49:46;;;;;;;3.58;1.17;;;7.20;99.90;;;;;;4979131;28;20212;-83
2024/01/23 02:52:12;;;;;;;2.83;1.20;;;7.30;99.90;;;;;;4982802;28;20235;-83
2024/01/23 02:54:37;;;;;;;4.20;1.60;;;7.20;99.90;;;;;;4985529;28;20217;-83
2024/01/23 02:57:03;;;;;;;4.03;1.67;;;7.70;99.90;;;;;;4986623;28;20498;-83
2024/01/23 02:59:29;;;;;;;3.87;1.13;;;7.20;99.90;;;;;;4968729;28;20184;-82
2024/01/23 03:01:54;;;;;;;2.43;1.00;;;7.10;99.90;;;;;;4970495;28;20418;-84
2024/01/23 03:04:20;;;;;;;2.63;1.20;;;7.30;99.90;;;;;;4973286;28;20216;-83
2024/01/23 03:06:45;;;;;;;3.03;1.40;;;7.20;99.90;;;;;;4966496;28;20292;-83
2024/01/23 03:09:11;;;;;;;2.43;1.30;;;6.90;99.90;;;;;;4976871;28;20204;-83
2024/01/23 03:11:37;;;;;;;5.43;1.80;;;7.10;99.90;;;;;;4981703;28;20192;-84
2024/01/23 03:14:03;;;;;;;6.57;1.58;;;7.00;99.90;;;;;;4978813;28;20184;-83
2024/01/23 03:16:29;;;;;;;5.68;2.38;;;7.50;99.90;;;;;;4980253;28;20217;-83
2024/01/23 03:18:54;;;;;;;5.90;1.70;;;7.50;99.90;;;;;;4979754;28;20184;-83
2024/01/23 03:21:20;;;;;;;6.00;1.70;;;7.70;99.90;;;;;;4979557;28;20185;-83
2024/01/23 03:23:45;;;;;;;4.10;1.33;;;7.40;99.90;;;;;;4982351;28;20203;-84
2024/01/23 03:26:11;;;;;;;5.00;1.80;;;7.50;99.90;;;;;;4980225;28;20658;-83
2024/01/23 03:28:36;;;;;;;2.87;1.40;;;7.20;99.90;;;;;;4979206;28;20311;-84
2024/01/23 03:31:03;;;;;;;5.73;2.93;;;7.20;99.90;;;;;;4981123;28;20192;-83
2024/01/23 03:33:29;;;;;;;3.13;1.40;;;7.10;99.90;;;;;;4980392;28;20172;-83
2024/01/23 03:35:54;;;;;;;5.53;1.67;;;7.20;99.90;;;;;;4991733;28;20220;-83
2024/01/23 03:38:20;;;;;;;9.00;1.57;;;7.40;99.90;;;;;;4992037;28;20211;-83
2024/01/23 03:40:45;;;;;;;6.30;2.40;;;7.70;99.90;;;;;;4982230;28;20189;-83
2024/01/23 03:43:11;;;;;;;5.40;1.80;;;7.20;99.90;;;;;;4980064;28;20176;-83
2024/01/23 03:45:36;;;;;;;8.27;1.60;;;7.30;99.90;;;;;;4983122;28;20215;-83
2024/01/23 03:48:03;;;;;;;4.47;1.60;;;7.70;99.90;;;;;;4979192;28;20220;-83
2024/01/23 03:50:29;;;;;;;5.85;1.50;;;7.30;99.90;;;;;;4982456;28;20211;-83
2024/01/23 03:52:55;;;;;;;2.75;1.20;;;7.50;99.90;;;;;;4976690;28;20193;-83
2024/01/23 03:55:21;;;;;;;5.90;2.23;;;7.50;99.90;;;;;;4980483;28;20202;-83
2024/01/23 03:57:47;;;;;;;2.50;1.47;;;7.30;99.90;;;;;;4979650;28;20592;-83
2024/01/23 04:00:13;;;;;;;6.80;2.47;;;7.40;99.90;;;;;;4982892;28;20271;-83
2024/01/23 04:02:39;;;;;;;2.40;1.50;;;7.40;99.90;;;;;;4979705;28;20239;-83
2024/01/23 04:05:07;;;;;;;7.00;1.93;;;7.50;99.90;;;;;;4980512;28;20208;-84
2024/01/23 04:07:33;;;;;;;6.60;2.10;;;7.40;99.90;;;;;;4974670;28;20494;-83
2024/01/23 04:10:01;;;;;;;5.30;2.15;;;7.80;99.90;;;;;;4980310;28;20208;-83
2024/01/23 04:12:26;;;;;;;5.70;1.83;;;7.60;99.90;;;;;;4983000;28;20195;-83
2024/01/23 04:14:52;;;;;;;5.90;1.70;;;7.70;99.90;;;;;;4990223;28;20200;-83
2024/01/23 04:17:19;;;;;;;7.93;2.00;;;8.00;99.90;;;;;;4989662;28;20192;-83
2024/01/23 04:19:45;;;;;;;5.97;1.80;;;7.70;99.90;;;;;;4984867;28;20189;-83
2024/01/23 04:22:11;;;;;;;5.77;1.50;;;8.00;99.90;;;;;;4999408;28;20284;-83
2024/01/23 04:24:37;;;;;;;6.82;2.22;;;8.00;99.90;;;;;;4971425;28;20217;-83
2024/01/23 04:27:04;;;;;;;4.82;1.70;;;8.00;99.90;;;;;;4982048;28;20211;-82
2024/01/23 04:29:30;;;;;;;4.15;1.70;;;7.90;99.90;;;;;;4980230;28;20226;-83
2024/01/23 04:31:55;;;;;;;7.73;1.90;;;7.90;99.90;;;;;;4971346;28;20267;-83
2024/01/23 04:34:21;;;;;;;7.57;1.73;;;8.00;99.90;;;;;;4971752;28;20201;-84
2024/01/23 04:36:47;;;;;;;10.10;1.80;;;7.70;99.90;;;;;;4973638;28;20180;-83
2024/01/23 04:39:13;;;;;;;6.93;1.73;;;7.80;99.90;;;;;;4974323;28;20248;-83
2024/01/23 04:41:38;;;;;;;7.10;2.07;;;7.80;99.90;;;;;;4977602;28;20184;-83
2024/01/23 04:44:05;;;;;;;11.17;2.80;;;8.00;99.90;;;;;;4992147;28;20188;-83
2024/01/23 04:46:31;;;;;;;4.97;2.00;;;7.90;99.90;;;;;;4983709;28;20204;-83
2024/01/23 04:48:56;;;;;;;6.03;1.73;;;7.80;99.90;;;;;;4980400;28;20235;-83
2024/01/23 04:51:22;;;;;;;6.83;2.10;;;8.30;99.90;;;;;;4986659;28;20176;-83
2024/01/23 04:53:51;;;;;;;9.93;2.23;;;8.00;99.90;;;;;;4991593;28;20185;-83
2024/01/23 04:56:17;;;;;;;6.30;2.17;;;8.30;99.90;;;;;;4986719;28;20225;-84
2024/01/23 04:58:42;;;;;;;6.17;1.67;;;8.00;99.90;;;;;;4982958;28;20212;-84
2024/01/23 05:01:08;;;;;;;4.03;1.53;;;8.30;99.90;;;;;;4977345;28;20199;-84
2024/01/23 05:03:33;;;;;;;7.90;4.03;;;7.80;99.90;;;;;;4977119;28;20193;-84
2024/01/23 05:05:59;;;;;;;3.97;1.40;;;7.80;99.90;;;;;;4979487;28;20216;-84
2024/01/23 05:08:25;;;;;;;4.03;1.60;;;7.80;99.90;;;;;;4981141;28;20228;-84
2024/01/23 05:10:51;;;;;;;4.00;2.10;;;7.80;99.90;;;;;;4975226;28;20185;-83
2024/01/23 05:13:16;;;;;;;6.17;1.57;;;8.00;99.90;;;;;;4975677;28;20205;-83
2024/01/23 05:15:42;;;;;;;5.37;1.20;;;7.80;99.90;;;;;;4980615;28;20272;-83
2024/01/23 05:18:07;;;;;;;4.90;2.07;;;7.50;99.90;;;;;;4976471;28;20192;-84
2024/01/23 05:20:34;;;;;;;4.03;1.47;;;8.10;99.90;;;;;;4979270;28;20188;-84
2024/01/23 05:23:01;;;;;;;5.15;1.55;;;8.00;99.90;;;;;;4962429;28;20219;-84
2024/01/23 05:25:27;;;;;;;7.00;1.85;;;7.70;99.90;;;;;;4973726;28;20216;-83
2024/01/23 05:27:52;;;;;;;6.68;1.85;;;7.50;99.90;;;;;;4983165;28;20199;-83
2024/01/23 05:30:18;;;;;;;6.00;2.43;;;7.80;99.90;;;;;;4962885;28;20189;-84
2024/01/23 05:32:44;;;;;;;3.77;1.70;;;8.10;99.90;;;;;;4978114;28;20204;-84
2024/01/23 05:35:10;;;;;;;4.70;1.13;;;7.50;99.90;;;;;;4975678;28;20196;-84
2024/01/23 05:37:36;;;;;;;4.47;2.20;;;8.00;99.90;;;;;;4974095;28;20208;-84
2024/01/23 05:40:05;;;;;;;2.10;1.30;;;7.40;99.90;;;;;;4981016;28;20441;-84
2024/01/23 05:42:31;;;;;;;6.10;1.75;;;7.40;99.90;;;;;;4977061;28;20188;-84
2024/01/23 05:44:56;;;;;;;4.60;1.40;;;7.90;99.90;;;;;;4975457;28;20291;-84
2024/01/23 05:47:22;;;;;;;3.53;1.20;;;7.80;99.90;;;;;;4981156;28;20283;-84
2024/01/23 05:49:48;;;;;;;6.40;2.30;;;7.70;99.90;;;;;;4980907;28;20251;-84
2024/01/23 05:52:14;;;;;;;2.67;1.20;;;7.20;99.90;;;;;;4979117;28;20192;-84
2024/01/23 05:54:44;;;;;;;5.28;1.58;;;7.40;99.90;;;;;;4979765;28;20681;-85
2024/01/23 05:57:10;;;;;;;4.25;1.17;;;7.30;99.90;;;;;;4980975;28;20689;-85
2024/01/23 05:59:36;;;;;;;2.63;0.80;;;6.80;99.90;;;;;;4965255;28;20204;-84
2024/01/23 06:02:04;;;;;;;2.70;1.23;;;7.00;99.90;;;;;;4974400;28;21223;-81
2024/01/23 06:04:30;;;;;;;1.48;1.00;;;7.70;99.90;;;;;;4972791;28;20797;-83
2024/01/23 06:06:55;;;;;;;2.08;1.00;;;7.20;99.90;;;;;;4977612;28;20255;-84
2024/01/23 06:09:21;;;;;;;3.40;1.30;;;7.40;99.90;;;;;;4973341;28;20212;-85
2024/01/23 06:11:47;;;;;;;2.97;1.87;;;7.20;99.90;;;;;;4976597;28;20199;-84
2024/01/23 06:14:12;;;;;;;2.33;1.13;;;7.20;99.90;;;;;;4971646;28;20181;-84
2024/01/23 06:16:38;;;;;;;1.47;0.93;;;7.70;99.90;;;;;;4964581;28;20193;-85
2024/01/23 06:19:08;;;;;;;3.30;1.40;;;7.10;99.90;;;;;;4983547;28;20196;-85
2024/01/23 06:21:34;;;;;;;3.10;1.67;;;7.60;99.90;;;;;;4961712;28;20264;-84
2024/01/23 06:24:00;;;;;;;2.17;1.02;;;7.10;99.90;;;;;;4977066;28;20192;-85
2024/01/23 06:26:26;;;;;;;1.67;1.20;;;7.10;99.90;;;;;;4977709;28;20216;-85
2024/01/23 06:28:51;;;;;;;2.20;1.03;;;7.00;99.90;;;;;;4982552;28;20223;-86
2024/01/23 06:31:18;;;;;;;2.20;0.83;;;6.90;99.90;;;;;;4979737;28;20195;-84
2024/01/23 06:33:44;;;;;;;1.35;0.98;;;7.60;99.90;;;;;;4963992;28;20204;-85
2024/01/23 06:36:11;;;;;;;4.03;1.17;;;6.80;99.90;;;;;;4991717;28;20200;-84
2024/01/23 06:38:36;;;;;;;3.28;1.42;;;6.80;99.90;;;;;;4988972;28;20185;-84
2024/01/23 06:41:02;;;;;;;2.40;1.00;;;7.40;99.90;;;;;;4997733;28;20219;-85
2024/01/23 06:43:28;;;;;;;2.70;1.30;;;6.80;99.90;;;;;;4995540;28;20184;-84
2024/01/23 06:45:56;;;;;;;1.47;0.80;;;7.00;99.90;;;;;;4989077;28;20200;-84
2024/01/23 06:48:21;;;;;;;2.75;1.20;;;7.10;99.90;;;;;;4993384;28;20210;-84
2024/01/23 06:50:47;;;;;;;1.20;0.80;;;7.10;99.90;;;;;;4982335;28;20184;-85
2024/01/23 06:53:13;;;;;;;2.25;0.93;;;6.70;99.90;;;;;;4977080;28;20208;-85
2024/01/23 06:55:39;;;;;;;2.63;0.90;;;7.30;99.90;;;;;;4978794;28;20200;-85
2024/01/23 06:58:04;;;;;;;2.20;1.60;;;7.20;99.90;;;;;;4976903;28;20188;-84
2024/01/23 07:00:33;;;;;;;3.03;0.80;;;7.00;99.90;;;;;;4975983;28;20203;-84
2024/01/23 07:02:59;;;;;;;1.55;0.90;;;7.10;99.90;;;;;;4991624;28;20188;-84
2024/01/23 07:05:24;;;;;;;1.20;0.80;;;7.00;99.90;;;;;;4979622;28;20209;-83
2024/01/23 07:07:50;;;;;;;3.53;0.80;;;7.00;99.90;;;;;;4978481;28;20440;-83
2024/01/23 07:10:15;;;;;;;4.43;1.00;;;6.40;99.90;;;;;;4967332;28;20204;-84
2024/01/23 07:12:42;;;;;;;4.00;1.30;;;6.50;99.90;;;;;;4977209;28;20183;-85
2024/01/23 07:15:08;;;;;;;3.35;1.45;;;6.40;99.90;;;;;;4982003;28;20259;-85
2024/01/23 07:17:34;;;;;;;3.27;1.17;;;6.30;99.90;;;;;;4968118;28;20176;-86
2024/01/23 07:20:00;;;;;;;1.87;1.10;;;6.30;99.90;;;;;;4980184;28;20208;-86
2024/01/23 07:22:26;;;;;;;2.75;1.33;;;6.50;99.90;;;;;;4973729;28;20264;-85
2024/01/23 07:24:51;;;;;;;1.23;1.10;;;6.20;99.90;;;;;;4978094;28;20236;-85
2024/01/23 07:27:19;;;;;;;2.50;1.20;;;6.00;99.90;;;;;;4973075;28;20213;-85
2024/01/23 07:29:45;;;;;;;7.50;1.55;;;6.40;99.90;;;;;;4978424;28;20288;-86
2024/01/23 07:32:11;;;;;;;1.43;1.10;;;5.80;99.90;;;;;;4980502;28;20226;-86
2024/01/23 07:34:39;;;;;;;2.10;1.00;;;6.20;99.90;;;;;;4961359;28;20236;-86
2024/01/23 07:37:05;;;;;;;1.83;1.30;;;5.70;99.90;;;;;;4981554;28;21670;-86
2024/01/23 07:39:31;;;;;;;4.00;1.40;;;6.00;99.90;;;;;;4975744;28;20274;-87
2024/01/23 07:41:57;;;;;;;2.33;1.73;;;6.50;99.90;;;;;;4973941;28;20192;-85
2024/01/23 07:44:23;;;;;;;3.80;1.48;;;6.50;99.90;;;;;;4968380;28;20215;-85
2024/01/23 07:46:48;;;;;;;2.13;1.40;;;6.70;99.90;;;;;;4974877;28;20184;-85
2024/01/23 07:49:14;;;;;;;4.73;1.30;;;5.90;99.90;;;;;;4969322;28;20200;-85
2024/01/23 07:51:50;;;;;;;2.03;1.30;;;6.20;99.90;;;;;;4972457;28;20407;-86
2024/01/23 07:54:16;;;;;;;3.85;1.65;;;5.90;99.90;;;;;;4971468;28;20210;-86
2024/01/23 07:56:41;;;;;;;3.47;2.03;;;6.00;99.90;;;;;;4964807;28;20272;-88
2024/01/23 07:59:07;;;;;;;7.43;1.80;;;6.20;99.90;;;;;;4969128;28;20447;-86
2024/01/23 08:01:33;;;;;;;2.33;1.20;;;6.30;99.90;;;;;;4975174;28;20605;-86
2024/01/23 08:03:59;;;;;;;4.30;2.13;;;;;;;;;;4965864;28;20211;-84
2024/01/23 08:06:24;;;;;;;5.20;1.87;;;5.90;99.90;;;;;;4969069;28;20188;-83
2024/01/23 08:08:51;;;;;;;5.10;1.20;;;6.50;99.90;;;;;;4975710;28;20475;-84
2024/01/23 08:11:17;;;;;;;2.08;1.17;;;6.10;99.90;;;;;;4974661;28;20447;-83
2024/01/23 08:13:42;;;;;;;6.25;1.52;;;6.60;99.90;;;;;;4960935;28;20192;-83
2024/01/23 08:16:09;;;;;;;2.90;1.30;;;6.70;99.90;;;;;;4970158;28;20220;-83
2024/01/23 08:18:36;;;;;;;3.10;1.95;;;6.80;99.90;;;;;;4974380;28;20185;-83
2024/01/23 08:21:02;;;;;;;5.15;3.38;;;6.50;99.90;;;;;;4969684;28;20193;-84
2024/01/23 08:23:28;;;;;;;5.85;3.05;;;6.40;99.90;;;;;;4975002;28;20219;-84
2024/01/23 08:25:53;;;;;;;3.80;2.17;;;6.60;99.90;;;;;;4974100;28;20231;-84
2024/01/23 08:28:19;;;;;;;2.03;1.50;;;;;;;;;;4977161;28;20463;-83
2024/01/23 08:30:45;;;;;;;2.00;1.40;;;6.50;99.90;;;;;;4976356;28;20199;-84
2024/01/23 08:33:17;;;;;;;2.20;1.30;;;6.40;99.90;;;;;;4974052;28;20187;-84
2024/01/23 08:35:42;;;;;;;3.80;1.40;;;6.60;99.90;;;;;;4976283;28;20199;-85
2024/01/23 08:38:09;;;;;;;3.03;1.70;;;6.60;99.90;;;;;;4974505;28;20270;-84
2024/01/23 08:40:34;;;;;;;4.32;1.98;;;6.60;99.90;;;;;;4975910;28;20185;-84
2024/01/23 08:43:00;;;;;;;4.60;2.87;;;7.10;99.90;;;;;;4969995;28;20195;-86
2024/01/23 08:45:25;;;;;;;3.47;2.13;;;7.10;99.90;;;;;;4970571;28;20492;-84
2024/01/23 08:47:51;;;;;;;4.83;2.57;;;6.70;99.90;;;;;;4973596;28;20185;-84
2024/01/23 08:50:16;;;;;;;4.00;2.60;;;6.80;99.90;;;;;;4977860;28;20192;-84
2024/01/23 08:52:43;;;;;;;5.33;2.43;;;7.00;99.90;;;;;;4976260;28;20200;-84
2024/01/23 08:55:09;;;;;;;4.90;2.40;;;6.80;99.90;;;;;;4980166;28;20228;-82
2024/01/23 08:57:35;;;;;;;5.07;2.38;;;;;;;;;;4985673;28;20195;-82
2024/01/23 09:00:02;;;;;;;4.85;3.30;;;7.10;99.90;;;;;;4984921;28;20221;-83
2024/01/23 09:02:27;;;;;;;5.45;1.60;;;6.90;99.90;;;;;;4986253;28;20210;-85
2024/01/23 09:04:53;;;;;;;2.67;1.43;;;7.70;99.90;;;;;;4985496;28;20243;-85
2024/01/23 09:07:22;;;;;;;4.30;1.50;;;7.30;99.90;;;;;;4983278;28;20263;-84
2024/01/23 09:09:51;;;;;;;5.10;1.90;;;7.50;99.90;;;;;;4991100;28;20240;-84
2024/01/23 09:12:16;;;;;;;5.18;1.65;;;7.40;99.90;;;;;;4990640;28;20196;-84
2024/01/23 09:14:43;;;;;;;3.53;1.70;;;7.60;99.90;;;;;;5008011;28;20193;-83
2024/01/23 09:17:10;;;;;;;2.33;1.50;;;7.60;99.90;;;;;;4984377;28;20196;-83
2024/01/23 09:19:35;;;;;;;2.75;1.90;;;8.10;99.90;;;;;;4981621;28;20493;-83
2024/01/23 09:22:01;;;;;;;4.50;1.50;;;7.50;99.90;;;;;;4979027;28;20193;-84
2024/01/23 09:24:27;;;;;;;2.13;1.40;;;;;;;;;;4979651;28;20214;-85
2024/01/23 09:26:58;;;;;;;3.80;1.50;;;7.60;99.90;;;;;;4992341;28;20208;-84
2024/01/23 09:29:23;;;;;;;4.72;1.48;;;8.00;99.90;;;;;;4980467;28;20449;-84
2024/01/23 09:31:49;;;;;;;2.87;1.40;;;8.30;99.90;;;;;;4978487;28;20185;-83
2024/01/23 09:34:16;;;;;;;2.20;1.30;;;8.60;99.90;;;;;;4978580;28;20181;-84
2024/01/23 09:36:41;;;;;;;3.30;1.85;;;8.50;99.90;;;;;;4993635;28;20192;-83
2024/01/23 09:39:07;;;;;;;3.07;1.23;;;8.30;99.90;;;;;;4979857;28;20186;-83
2024/01/23 09:41:36;;;;;;;4.20;1.30;;;9.00;99.90;;;;;;4980755;28;20315;-84
2024/01/23 09:44:03;;;;;;;3.95;1.65;;;8.50;99.90;;;;;;4981376;28;20203;-84
2024/01/23 09:46:30;;;;;;;2.50;1.13;;;8.60;99.90;;;;;;4984863;28;20188;-85
2024/01/23 09:48:55;;;;;;;4.60;1.52;;;8.80;99.90;;;;;;5005983;28;20204;-85
2024/01/23 09:51:26;;;;;;;4.60;2.13;;;9.90;99.90;;;;;;4984641;28;20281;-84
2024/01/23 09:53:51;;;;;;;8.05;3.38;;;9.00;99.90;;;;;;4977061;28;20201;-84
2024/01/23 09:56:18;;;;;;;2.70;1.30;;;8.70;99.90;;;;;;4975760;28;20205;-86
2024/01/23 09:58:43;;;;;;;2.95;1.45;;;8.80;99.90;;;;;;4981204;28;20184;-87
2024/01/23 10:01:10;;;;;;;1.97;1.40;;;9.20;99.90;;;;;;4974685;28;20196;-87
2024/01/23 10:03:36;;;;;;;2.38;1.10;;;9.00;99.90;;;;;;4955707;28;20218;-87
2024/01/23 10:06:03;;;;;;;1.73;0.80;;;8.50;99.90;;;;;;4972531;28;20208;-86
2024/01/23 10:08:29;;;;;;;4.43;1.30;;;8.70;99.90;;;;;;4960870;28;20219;-84
2024/01/23 10:10:59;;;;;;;2.20;1.20;;;8.90;99.90;;;;;;4974113;28;20181;-84
2024/01/23 10:13:26;;;;;;;2.53;1.45;;;9.20;99.90;;;;;;4986565;28;20185;-85
2024/01/23 10:15:54;;;;;;;3.30;1.60;;;9.00;99.90;;;;;;4994174;28;20217;-85
2024/01/23 10:18:21;;;;;;;2.85;1.50;;;8.90;99.90;;;;;;4994442;28;20203;-86
2024/01/23 10:20:47;;;;;;;3.58;1.25;;;9.10;99.90;;;;;;4990544;28;20208;-85
2024/01/23 10:23:13;;;;;;;3.08;1.10;;;9.30;99.90;;;;;;4976987;28;20297;-88
2024/01/23 10:25:40;;;;;;;5.00;1.40;;;9.40;99.90;;;;;;4991589;28;20213;-88
2024/01/23 10:28:09;;;;;;;4.93;1.58;;;9.80;99.90;;;;;;4960517;28;20293;-88
2024/01/23 10:30:38;;;;;;;4.38;1.58;;;10.10;99.90;;;;;;4986796;28;20606;-87
2024/01/23 10:33:06;;;;;;;3.08;2.33;;;10.30;99.90;;;;;;4983027;28;20189;-84
2024/01/23 10:35:35;;;;;;;4.25;1.92;;;10.80;99.90;;;;;;4979140;28;20233;-85
2024/01/23 10:38:02;;;;;;;2.90;1.90;;;11.00;99.90;;;;;;4972739;28;20197;-85
2024/01/23 10:40:31;;;;;;;3.75;1.70;;;10.90;99.90;;;;;;4964227;28;20194;-84
2024/01/23 10:42:57;;;;;;;3.38;1.85;;;11.20;99.90;;;;;;4980915;28;20191;-85
2024/01/23 10:45:23;;;;;;;2.50;1.13;;;10.70;99.90;;;;;;4976172;28;20235;-86
2024/01/23 10:47:51;;;;;;;4.47;1.65;;;11.20;99.90;;;;;;4974930;28;20726;-85
2024/01/23 10:50:20;;;;;;;3.55;1.38;;;11.70;99.90;;;;;;4964073;28;20196;-84
2024/01/23 10:52:48;;;;;;;2.70;1.55;;;13.20;99.90;;;;;;4978651;28;20213;-84
2024/01/23 10:55:14;;;;;;;6.63;1.88;;;12.00;99.90;;;;;;4993507;28;20215;-84
2024/01/23 10:57:43;;;;;;;6.13;1.63;;;12.30;99.90;;;;;;4974506;28;20185;-84
2024/01/23 11:00:11;;;;;;;10.10;1.90;;;12.00;98.10;;;;;;4977589;28;20181;-84
2024/01/23 11:02:49;;;;;;;6.00;1.80;;;12.80;98.50;;;;;;4980298;28;20191;-84
2024/01/23 11:05:15;;;;;;;4.35;1.85;;;12.90;98.30;;;;;;4977786;28;21360;-84
2024/01/23 11:07:57;;;;;;;2.93;1.40;;;12.10;98.00;;;;;;4995065;28;20208;-84
2024/01/23 11:10:24;;;;;;;7.15;2.22;;;12.50;97.90;;;;;;4975943;28;20196;-85
2024/01/23 11:13:27;;;;;;;5.45;1.58;;;12.50;97.10;;;;;;4976453;28;20193;-85
2024/01/23 11:15:53;;;;;;;2.55;1.60;;;12.30;97.40;;;;;;4977963;28;20204;-86
2024/01/23 11:18:22;;;;;;;3.27;1.40;;;12.90;97.70;;;;;;4978067;28;20243;-87
2024/01/23 11:21:03;;;;;;;3.90;1.65;;;13.50;97.40;;;;;;4970080;28;20238;-87
2024/01/23 11:23:31;;;;;;;2.80;1.48;;;14.20;96.40;;;;;;4978905;28;20183;-86
2024/01/23 11:26:14;;;;;;;4.15;1.60;;;13.90;94.70;;;;;;4976190;28;20211;-86
2024/01/23 11:28:45;;;;;;;3.65;1.90;;;13.90;94.20;;;;;;4972347;28;20205;-86
2024/01/23 11:31:20;;;;;;;3.17;1.50;;;13.70;93.70;;;;;;4972123;28;20611;-85
2024/01/23 11:33:51;;;;;;;3.30;1.70;;;13.50;94.90;;;;;;4972709;28;20243;-86
2024/01/23 11:36:28;;;;;;;5.72;2.10;;;12.80;94.20;;;;;;4973047;28;20203;-86
2024/01/23 11:38:58;;;;;;;6.60;1.60;;;12.40;94.10;;;;;;4968257;28;20196;-86
2024/01/23 11:41:27;;;;;;;5.57;1.80;;;12.10;93.00;;;;;;4988496;28;20216;-87
2024/01/23 11:44:03;;;;;;;7.05;1.75;;;12.00;93.90;;;;;;4990123;28;20187;-85
2024/01/23 11:46:30;;;;;;;5.38;2.10;;;12.40;93.40;;;;;;4985894;28;20193;-85
2024/01/23 11:48:56;;;;;;;4.95;1.60;;;13.60;93.80;;;;;;4977550;28;20239;-85
2024/01/23 11:51:22;;;;;;;2.90;1.70;;;13.30;91.10;;;;;;4975542;28;20181;-85
2024/01/23 11:53:49;;;;;;;12.85;3.15;;;13.70;91.50;;;;;;4973165;28;20192;-85
2024/01/23 11:56:16;;;;;;;5.72;3.05;;;13.50;91.10;;;;;;4977366;28;20200;-85
2024/01/23 11:58:42;;;;;;;4.57;2.00;;;13.40;90.60;;;;;;4977073;28;20219;-85
2024/01/23 12:01:09;;;;;;;4.15;1.83;;;12.80;90.50;;;;;;4973864;28;20188;-86
2024/01/23 12:03:35;;;;;;;10.40;2.50;;;12.90;90.80;;;;;;4980251;28;20199;-85
2024/01/23 12:06:02;;;;;;;4.27;2.37;;;13.10;91.60;;;;;;4982270;28;20231;-85
2024/01/23 12:08:28;;;;;;;10.15;6.25;;;12.50;91.70;;;;;;4976586;28;20239;-85
2024/01/23 12:10:56;;;;;;;4.80;1.65;;;11.80;92.30;;;;;;4978112;28;20299;-85
2024/01/23 12:13:25;;;;;;;7.00;2.05;;;12.10;93.30;;;;;;4955528;28;20298;-85
2024/01/23 12:15:51;;;;;;;10.25;2.20;;;11.30;93.30;;;;;;4976416;28;20215;-85
2024/01/23 12:18:23;;;;;;;2.45;1.30;;;11.70;94.30;;;;;;4977127;28;20196;-85
2024/01/23 12:20:54;;;;;;;3.17;1.50;;;11.30;94.30;;;;;;4982503;28;20192;-85
2024/01/23 12:23:21;;;;;;;7.32;1.90;;;11.20;93.10;;;;;;4971596;28;20184;-85
2024/01/23 12:25:47;;;;;;;3.67;1.60;;;11.90;93.60;;;;;;4988449;28;20276;-85
2024/01/23 12:28:14;;;;;;;9.20;2.10;;;11.70;93.70;;;;;;4987538;28;20188;-85
2024/01/23 12:30:39;;;;;;;4.05;1.55;;;11.60;93.20;;;;;;4980966;28;20445;-84
2024/01/23 12:33:05;;;;;;;6.10;2.10;;;11.60;93.20;;;;;;4980962;28;20184;-84
2024/01/23 12:35:36;;;;;;;6.53;1.70;;;11.60;93.30;;;;;;4978725;28;20223;-84
2024/01/23 12:38:02;;;;;;;7.50;1.73;;;11.80;93.40;;;;;;4970585;28;20467;-84
2024/01/23 12:40:28;;;;;;;3.95;1.40;;;11.50;93.20;;;;;;4979581;28;20364;-84
2024/01/23 12:42:54;;;;;;;3.90;1.80;;;11.60;93.40;;;;;;4986311;28;20713;-86
2024/01/23 12:45:19;;;;;;;4.20;1.90;;;11.20;93.40;;;;;;4975413;28;20293;-85
2024/01/23 12:47:50;;;;;;;3.57;1.73;;;11.30;94.40;;;;;;4996564;28;20514;-85
2024/01/23 12:50:24;;;;;;;8.07;2.47;;;10.90;94.20;;;;;;4993337;28;20234;-85
2024/01/23 12:52:58;;;;;;;5.70;1.70;;;10.90;94.70;;;;;;5006893;28;20201;-85